createdAt,value
2023-09-03T00:00:39.393Z,9.50
2023-09-03T00:03:07.068Z,10.45
2023-09-03T00:05:34.422Z,9.95
2023-09-03T00:08:01.647Z,10.07
2023-09-03T00:10:29.092Z,9.45
2023-09-03T00:12:55.791Z,10.63
2023-09-03T00:15:26.700Z,9.95
2023-09-03T00:17:53.471Z,10.60
2023-09-03T00:20:20.407Z,9.35
2023-09-03T00:22:47.298Z,9.02
2023-09-03T00:25:14.099Z,9.48
2023-09-03T00:27:40.805Z,8.48
2023-09-03T00:30:08.280Z,9.32
2023-09-03T00:32:34.964Z,8.52
2023-09-03T00:35:01.688Z,8.70
2023-09-03T00:37:28.350Z,8.32
2023-09-03T00:39:55.125Z,8.50
2023-09-03T00:42:21.696Z,9.05
2023-09-03T00:44:48.908Z,8.38
2023-09-03T00:47:18.484Z,9.75
2023-09-03T00:49:45.416Z,8.48
2023-09-03T00:52:12.669Z,8.15
2023-09-03T00:54:39.854Z,8.50
2023-09-03T00:57:06.564Z,8.40
2023-09-03T00:59:34.647Z,8.80
2023-09-03T01:02:01.421Z,7.97
2023-09-03T01:04:28.212Z,8.77
2023-09-03T01:06:55.387Z,8.38
2023-09-03T01:09:22.143Z,8.52
2023-09-03T01:11:59.048Z,8.85
2023-09-03T01:14:33.297Z,8.80
2023-09-03T01:17:33.014Z,7.95
2023-09-03T01:20:13.316Z,8.45
2023-09-03T01:23:21.093Z,8.93
2023-09-03T01:26:13.087Z,7.75
2023-09-03T01:28:42.070Z,7.82
2023-09-03T01:31:17.955Z,8.85
2023-09-03T01:33:46.974Z,7.45
2023-09-03T01:36:15.038Z,8.00
2023-09-03T01:38:42.098Z,7.75
2023-09-03T01:41:09.347Z,8.13
2023-09-03T01:43:36.106Z,7.88
2023-09-03T01:46:08.899Z,7.63
2023-09-03T01:49:13.348Z,8.20
2023-09-03T01:51:57.189Z,7.53
2023-09-03T01:54:30.002Z,8.35
2023-09-03T01:57:05.743Z,7.63
2023-09-03T01:59:42.348Z,7.65
2023-09-03T02:02:10.790Z,6.97
2023-09-03T02:04:37.516Z,6.97
2023-09-03T02:07:04.359Z,7.25
2023-09-03T02:09:31.275Z,7.30
2023-09-03T02:11:58.660Z,7.55
2023-09-03T02:14:25.428Z,6.40
2023-09-03T02:16:52.418Z,7.10
2023-09-03T02:19:19.066Z,6.13
2023-09-03T02:21:46.302Z,6.88
2023-09-03T02:24:13.181Z,6.55
2023-09-03T02:26:44.957Z,7.22
2023-09-03T02:29:12.496Z,6.43
2023-09-03T02:31:39.525Z,6.72
2023-09-03T02:34:07.394Z,6.70
2023-09-03T02:36:35.503Z,6.63
2023-09-03T02:39:04.224Z,7.18
2023-09-03T02:41:31.173Z,6.50
2023-09-03T02:44:02.465Z,6.45
2023-09-03T02:46:29.485Z,6.97
2023-09-03T02:48:56.171Z,7.35
2023-09-03T02:51:22.830Z,6.97
2023-09-03T02:53:52.436Z,6.38
2023-09-03T02:56:19.320Z,6.43
2023-09-03T02:58:48.091Z,6.85
2023-09-03T03:01:16.386Z,6.40
2023-09-03T03:03:43.040Z,6.78
2023-09-03T03:06:10.409Z,7.68
2023-09-03T03:08:37.274Z,6.97
2023-09-03T03:11:12.164Z,6.43
2023-09-03T03:13:40.913Z,7.13
2023-09-03T03:16:13.005Z,7.25
2023-09-03T03:18:41.480Z,7.22
2023-09-03T03:21:11.937Z,6.95
2023-09-03T03:23:39.543Z,7.43
2023-09-03T03:26:06.401Z,6.35
2023-09-03T03:28:34.742Z,6.70
2023-09-03T03:31:12.234Z,7.05
2023-09-03T03:33:40.524Z,7.13
2023-09-03T03:36:08.306Z,6.55
2023-09-03T03:38:35.406Z,6.40
2023-09-03T03:41:10.267Z,5.95
2023-09-03T03:43:44.979Z,6.13
2023-09-03T03:46:15.250Z,6.38
2023-09-03T03:48:42.732Z,6.53
2023-09-03T03:51:09.734Z,7.05
2023-09-03T03:53:36.972Z,6.97
2023-09-03T03:56:06.052Z,6.80
2023-09-03T03:58:37.814Z,6.70
2023-09-03T04:01:18.541Z,6.10
2023-09-03T04:03:47.054Z,6.55
2023-09-03T04:06:14.251Z,6.45
2023-09-03T04:08:41.510Z,6.18
2023-09-03T04:11:10.051Z,6.18
2023-09-03T04:13:38.015Z,6.93
2023-09-03T04:16:09.104Z,6.57
2023-09-03T04:18:35.911Z,6.28
2023-09-03T04:21:02.614Z,6.35
2023-09-03T04:23:29.787Z,6.60
2023-09-03T04:25:58.446Z,5.97
2023-09-03T04:28:25.839Z,6.07
2023-09-03T04:31:05.662Z,6.28
2023-09-03T04:33:32.492Z,5.55
2023-09-03T04:36:00.990Z,6.05
2023-09-03T04:38:28.607Z,6.00
2023-09-03T04:40:56.488Z,5.90
2023-09-03T04:43:24.360Z,6.53
2023-09-03T04:45:53.024Z,6.20
2023-09-03T04:48:21.720Z,5.75
2023-09-03T04:50:49.110Z,5.75
2023-09-03T04:53:15.908Z,6.25
2023-09-03T04:55:43.101Z,5.88
2023-09-03T04:58:10.092Z,5.60
2023-09-03T05:00:37.565Z,5.85
2023-09-03T05:03:06.290Z,5.80
2023-09-03T05:05:40.966Z,5.72
2023-09-03T05:08:09.660Z,4.93
2023-09-03T05:10:36.909Z,5.60
2023-09-03T05:13:08.272Z,5.30
2023-09-03T05:15:35.479Z,5.05
2023-09-03T05:18:02.833Z,4.85
2023-09-03T05:20:30.074Z,4.93
2023-09-03T05:22:56.788Z,5.22
2023-09-03T05:25:23.556Z,5.30
2023-09-03T05:27:50.232Z,5.50
2023-09-03T05:30:16.991Z,5.13
2023-09-03T05:32:43.850Z,4.93
2023-09-03T05:35:11.200Z,5.03
2023-09-03T05:37:37.910Z,4.90
2023-09-03T05:40:05.999Z,5.05
2023-09-03T05:42:33.168Z,5.35
2023-09-03T05:45:00.365Z,4.95
2023-09-03T05:47:27.395Z,5.47
2023-09-03T05:49:56.149Z,5.05
2023-09-03T05:52:22.795Z,4.95
2023-09-03T05:54:49.579Z,4.68
2023-09-03T05:57:16.298Z,4.88
2023-09-03T05:59:43.008Z,4.93
2023-09-03T06:02:09.679Z,4.55
2023-09-03T06:04:37.154Z,5.05
2023-09-03T06:07:05.558Z,4.97
2023-09-03T06:09:32.377Z,4.68
2023-09-03T06:11:59.192Z,5.00
2023-09-03T06:14:25.840Z,4.88
2023-09-03T06:16:53.078Z,5.22
2023-09-03T06:19:20.366Z,5.55
2023-09-03T06:21:46.964Z,5.88
2023-09-03T06:24:13.662Z,5.65
2023-09-03T06:26:40.407Z,6.20
2023-09-03T06:29:07.110Z,6.88
2023-09-03T06:31:33.885Z,6.22
2023-09-03T06:34:00.671Z,6.60
2023-09-03T06:36:27.371Z,6.35
2023-09-03T06:38:53.993Z,6.00
2023-09-03T06:41:20.716Z,6.38
2023-09-03T06:43:47.649Z,6.20
2023-09-03T06:46:14.494Z,5.22
2023-09-03T06:48:41.268Z,5.25
2023-09-03T06:51:08.114Z,4.53
2023-09-03T06:53:34.801Z,4.85
2023-09-03T06:56:01.609Z,4.50
2023-09-03T06:58:28.415Z,4.05
2023-09-03T07:00:56.609Z,3.55
2023-09-03T07:03:23.696Z,3.30
2023-09-03T07:05:50.484Z,3.30
2023-09-03T07:08:17.343Z,3.05
2023-09-03T07:10:44.451Z,3.15
2023-09-03T07:13:12.167Z,3.33
2023-09-03T07:15:38.951Z,2.97
2023-09-03T07:18:06.077Z,2.50
2023-09-03T07:20:32.902Z,2.50
2023-09-03T07:22:59.578Z,2.50
2023-09-03T07:25:26.526Z,2.30
2023-09-03T07:27:53.306Z,2.53
2023-09-03T07:30:20.034Z,2.70
2023-09-03T07:32:46.801Z,2.70
2023-09-03T07:35:14.082Z,2.60
2023-09-03T07:37:40.783Z,2.75
2023-09-03T07:40:09.554Z,2.47
2023-09-03T07:42:36.376Z,2.33
2023-09-03T07:45:03.626Z,2.42
2023-09-03T07:47:30.299Z,2.50
2023-09-03T07:49:57.132Z,2.13
2023-09-03T07:52:23.837Z,2.40
2023-09-03T07:54:50.665Z,2.50
2023-09-03T07:57:17.871Z,2.72
2023-09-03T07:59:44.581Z,2.40
2023-09-03T08:02:11.490Z,2.50
2023-09-03T08:04:38.260Z,2.10
2023-09-03T08:07:05.104Z,2.20
2023-09-03T08:09:32.276Z,1.90
2023-09-03T08:11:58.945Z,2.30
2023-09-03T08:14:25.803Z,2.30
2023-09-03T08:16:52.641Z,2.08
2023-09-03T08:19:19.387Z,2.00
2023-09-03T08:21:46.448Z,1.85
2023-09-03T08:24:13.291Z,1.80
2023-09-03T08:26:40.167Z,1.80
2023-09-03T08:29:07.080Z,2.00
2023-09-03T08:31:34.263Z,2.03
2023-09-03T08:34:01.036Z,1.85
2023-09-03T08:36:27.649Z,2.00
2023-09-03T08:38:54.712Z,1.90
2023-09-03T08:41:23.933Z,2.00
2023-09-03T08:43:58.747Z,2.10
2023-09-03T08:46:30.004Z,2.05
2023-09-03T08:48:57.580Z,1.80
2023-09-03T08:51:25.099Z,1.98
2023-09-03T08:53:55.084Z,1.88
2023-09-03T08:56:21.760Z,2.22
2023-09-03T08:58:48.478Z,2.13
2023-09-03T09:01:17.519Z,2.25
2023-09-03T09:03:45.881Z,2.20
2023-09-03T09:06:13.680Z,2.38
2023-09-03T09:08:42.020Z,1.98
2023-09-03T09:11:15.086Z,2.08
2023-09-03T09:13:48.573Z,1.80
2023-09-03T09:16:15.357Z,1.83
2023-09-03T09:18:42.336Z,2.20
2023-09-03T09:21:09.340Z,1.90
2023-09-03T09:23:36.220Z,2.00
2023-09-03T09:26:15.781Z,1.75
2023-09-03T09:28:58.370Z,2.03
2023-09-03T09:31:32.626Z,1.80
2023-09-03T09:34:01.396Z,2.03
2023-09-03T09:36:28.542Z,2.55
2023-09-03T09:39:06.477Z,2.30
2023-09-03T09:41:38.616Z,1.92
2023-09-03T09:44:10.969Z,2.20
2023-09-03T09:46:37.810Z,2.42
2023-09-03T09:49:04.570Z,2.15
2023-09-03T09:51:32.432Z,1.90
2023-09-03T09:54:04.265Z,1.98
2023-09-03T09:56:32.476Z,2.08
2023-09-03T09:58:59.714Z,2.50
2023-09-03T10:01:28.578Z,2.10
2023-09-03T10:03:56.104Z,1.70
2023-09-03T10:06:24.419Z,2.00
2023-09-03T10:08:53.059Z,2.08
2023-09-03T10:11:20.967Z,1.80
2023-09-03T10:13:51.017Z,1.70
2023-09-03T10:16:21.321Z,1.92
2023-09-03T10:18:50.368Z,1.80
2023-09-03T10:21:50.937Z,1.80
2023-09-03T10:24:17.909Z,1.92
2023-09-03T10:26:49.595Z,2.05
2023-09-03T10:29:20.677Z,2.05
2023-09-03T10:31:49.734Z,1.85
2023-09-03T10:34:16.927Z,1.95
2023-09-03T10:37:03.193Z,1.75
2023-09-03T10:39:30.131Z,2.00
2023-09-03T10:42:15.750Z,1.95
2023-09-03T10:44:43.658Z,1.90
2023-09-03T10:47:12.811Z,1.92
2023-09-03T10:49:44.394Z,1.50
2023-09-03T10:52:29.808Z,1.65
2023-09-03T10:55:19.495Z,1.60
2023-09-03T10:58:11.457Z,1.50
2023-09-03T11:00:38.619Z,1.70
2023-09-03T11:03:19.750Z,1.50
2023-09-03T11:06:24.885Z,1.60
2023-09-03T11:09:11.824Z,1.70
2023-09-03T11:11:41.761Z,1.70
2023-09-03T11:14:08.979Z,1.60
2023-09-03T11:16:38.022Z,1.90
2023-09-03T11:19:08.640Z,1.77
2023-09-03T11:21:37.437Z,1.60
2023-09-03T11:24:05.229Z,1.70
2023-09-03T11:26:36.124Z,2.05
2023-09-03T11:29:03.792Z,1.92
2023-09-03T11:31:31.266Z,1.98
2023-09-03T11:33:58.185Z,1.90
2023-09-03T11:36:27.965Z,1.73
2023-09-03T11:38:56.654Z,1.70
2023-09-03T11:41:23.730Z,2.10
2023-09-03T11:43:50.604Z,1.85
2023-09-03T11:46:19.248Z,2.10
2023-09-03T11:48:52.111Z,1.55
2023-09-03T11:51:29.874Z,2.20
2023-09-03T11:53:57.717Z,1.90
2023-09-03T11:56:27.198Z,1.77
2023-09-03T11:59:06.131Z,1.50
2023-09-03T12:01:33.357Z,1.75
2023-09-03T12:04:00.182Z,1.98
2023-09-03T12:06:27.950Z,2.00
2023-09-03T12:08:54.615Z,1.80
2023-09-03T12:11:29.625Z,1.70
2023-09-03T12:13:56.365Z,1.75
2023-09-03T12:16:25.258Z,1.88
2023-09-03T12:18:59.753Z,1.60
2023-09-03T12:21:37.128Z,2.00
2023-09-03T12:24:06.326Z,1.60
2023-09-03T12:26:36.227Z,1.67
2023-09-03T12:29:20.371Z,1.65
2023-09-03T12:31:47.041Z,1.80
2023-09-03T12:34:15.352Z,1.90
2023-09-03T12:37:02.860Z,1.50
2023-09-03T12:39:43.184Z,1.63
2023-09-03T12:42:11.451Z,1.90
2023-09-03T12:44:42.394Z,1.83
2023-09-03T12:47:10.411Z,1.73
2023-09-03T12:49:37.132Z,1.90
2023-09-03T12:52:04.007Z,1.67
2023-09-03T12:54:32.797Z,1.70
2023-09-03T12:57:01.761Z,1.50
2023-09-03T12:59:28.640Z,1.70
2023-09-03T13:01:55.484Z,1.88
2023-09-03T13:04:22.408Z,1.55
2023-09-03T13:06:49.189Z,1.88
2023-09-03T13:09:15.850Z,1.80
2023-09-03T13:11:42.742Z,1.88
2023-09-03T13:14:09.464Z,1.92
2023-09-03T13:16:37.347Z,1.70
2023-09-03T13:19:04.265Z,1.70
2023-09-03T13:21:36.886Z,1.55
2023-09-03T13:24:04.518Z,1.65
2023-09-03T13:26:31.404Z,1.90
2023-09-03T13:28:58.333Z,1.88
2023-09-03T13:31:27.167Z,1.67
2023-09-03T13:33:54.288Z,1.38
2023-09-03T13:36:21.846Z,1.63
2023-09-03T13:38:50.948Z,1.38
2023-09-03T13:41:17.773Z,1.58
2023-09-03T13:43:58.942Z,1.55
2023-09-03T13:46:27.217Z,1.83
2023-09-03T13:48:54.200Z,1.45
2023-09-03T13:51:22.459Z,1.48
2023-09-03T13:53:53.222Z,1.67
2023-09-03T13:56:20.018Z,1.40
2023-09-03T13:58:46.674Z,1.65
2023-09-03T14:01:13.453Z,1.55
2023-09-03T14:03:40.143Z,1.73
2023-09-03T14:06:08.369Z,1.40
2023-09-03T14:08:35.493Z,1.70
2023-09-03T14:11:02.249Z,1.58
2023-09-03T14:13:29.204Z,1.80
2023-09-03T14:15:57.262Z,1.90
2023-09-03T14:18:25.530Z,1.63
2023-09-03T14:20:57.072Z,1.75
2023-09-03T14:23:25.404Z,1.75
2023-09-03T14:25:53.477Z,1.80
2023-09-03T14:28:21.380Z,1.70
2023-09-03T14:30:50.386Z,1.90
2023-09-03T14:33:18.918Z,1.52
2023-09-03T14:35:48.481Z,1.60
2023-09-03T14:38:16.630Z,1.60
2023-09-03T14:40:50.586Z,1.90
2023-09-03T14:43:17.416Z,1.88
2023-09-03T14:45:44.092Z,1.40
2023-09-03T14:48:10.860Z,1.70
2023-09-03T14:50:37.729Z,1.70
2023-09-03T14:53:04.564Z,1.55
2023-09-03T14:55:31.192Z,1.83
2023-09-03T14:57:57.958Z,1.60
2023-09-03T15:00:24.594Z,1.60
2023-09-03T15:02:51.474Z,1.30
2023-09-03T15:05:18.425Z,1.77
2023-09-03T15:07:45.429Z,1.90
2023-09-03T15:10:12.562Z,2.00
2023-09-03T15:12:39.349Z,1.70
2023-09-03T15:15:06.377Z,1.70
2023-09-03T15:17:33.092Z,1.80
2023-09-03T15:20:00.920Z,1.65
2023-09-03T15:22:27.652Z,1.50
2023-09-03T15:24:54.378Z,1.70
2023-09-03T15:27:21.520Z,1.70
2023-09-03T15:29:49.656Z,2.00
2023-09-03T15:32:17.504Z,1.35
2023-09-03T15:34:45.827Z,1.52
2023-09-03T15:37:14.535Z,1.73
2023-09-03T15:39:42.396Z,1.52
2023-09-03T15:42:11.739Z,1.80
2023-09-03T15:44:40.433Z,1.45
2023-09-03T15:47:08.342Z,1.60
2023-09-03T15:49:37.095Z,1.30
2023-09-03T15:52:09.400Z,1.40
2023-09-03T15:54:39.235Z,1.40
2023-09-03T15:57:07.087Z,1.20
2023-09-03T15:59:35.189Z,1.30
2023-09-03T16:02:03.263Z,1.58
2023-09-03T16:04:31.768Z,1.33
2023-09-03T16:07:00.026Z,1.48
2023-09-03T16:09:27.646Z,1.35
2023-09-03T16:11:54.325Z,2.22
2023-09-03T16:14:21.023Z,1.85
2023-09-03T16:16:47.910Z,1.85
2023-09-03T16:19:14.555Z,1.70
2023-09-03T16:21:41.491Z,2.83
2023-09-03T16:24:08.483Z,3.80
2023-09-03T16:26:35.209Z,1.73
2023-09-03T16:29:01.884Z,1.35
2023-09-03T16:31:28.751Z,1.42
2023-09-03T16:33:55.412Z,1.23
2023-09-03T16:36:22.040Z,1.60
2023-09-03T16:38:48.915Z,1.40
2023-09-03T16:41:15.703Z,1.38
2023-09-03T16:43:43.896Z,1.40
2023-09-03T16:46:11.739Z,1.45
2023-09-03T16:48:38.405Z,1.65
2023-09-03T16:51:05.136Z,1.40
2023-09-03T16:53:31.974Z,1.50
2023-09-03T16:56:01.937Z,1.88
2023-09-03T16:58:28.550Z,1.58
2023-09-03T17:00:56.946Z,1.38
2023-09-03T17:03:26.182Z,1.50
2023-09-03T17:05:53.197Z,1.83
2023-09-03T17:08:20.342Z,1.70
2023-09-03T17:10:47.395Z,1.70
2023-09-03T17:13:14.204Z,1.40
2023-09-03T17:15:41.742Z,1.65
2023-09-03T17:18:09.489Z,1.70
2023-09-03T17:20:42.041Z,1.60
2023-09-03T17:23:09.504Z,1.50
2023-09-03T17:25:36.919Z,1.75
2023-09-03T17:28:03.896Z,1.45
2023-09-03T17:30:30.802Z,1.42
2023-09-03T17:32:57.680Z,1.65
2023-09-03T17:35:24.406Z,1.50
2023-09-03T17:37:51.172Z,1.60
2023-09-03T17:40:20.785Z,1.90
2023-09-03T17:42:47.869Z,1.73
2023-09-03T17:45:15.220Z,1.80
2023-09-03T17:47:43.962Z,2.10
2023-09-03T17:50:10.909Z,2.33
2023-09-03T17:52:37.770Z,1.83
2023-09-03T17:55:04.891Z,1.70
2023-09-03T17:57:34.570Z,1.55
2023-09-03T18:00:01.957Z,1.52
2023-09-03T18:02:28.866Z,1.80
2023-09-03T18:04:56.416Z,1.80
2023-09-03T18:07:23.218Z,1.70
2023-09-03T18:09:49.897Z,1.75
2023-09-03T18:12:16.734Z,1.63
2023-09-03T18:14:43.567Z,1.83
2023-09-03T18:17:11.301Z,1.60
2023-09-03T18:19:38.041Z,1.58
2023-09-03T18:22:05.226Z,1.65
2023-09-03T18:24:33.604Z,2.05
2023-09-03T18:27:00.311Z,1.80
2023-09-03T18:29:27.246Z,1.88
2023-09-03T18:31:54.031Z,1.67
2023-09-03T18:34:20.777Z,1.67
2023-09-03T18:36:48.203Z,1.85
2023-09-03T18:39:14.992Z,1.80
2023-09-03T18:41:41.712Z,2.17
2023-09-03T18:44:08.922Z,1.90
2023-09-03T18:46:35.761Z,2.00
2023-09-03T18:49:02.516Z,2.03
2023-09-03T18:51:29.849Z,2.45
2023-09-03T18:53:57.292Z,2.30
2023-09-03T18:56:24.117Z,2.50
2023-09-03T18:58:50.734Z,2.25
2023-09-03T19:01:20.579Z,2.55
2023-09-03T19:03:50.514Z,2.80
2023-09-03T19:06:18.818Z,2.60
2023-09-03T19:08:45.756Z,2.20
2023-09-03T19:11:12.694Z,2.20
2023-09-03T19:13:40.239Z,2.17
2023-09-03T19:16:07.006Z,2.63
2023-09-03T19:18:35.270Z,2.20
2023-09-03T19:21:02.394Z,2.10
2023-09-03T19:23:29.058Z,2.10
2023-09-03T19:25:55.832Z,2.00
2023-09-03T19:28:22.993Z,2.25
2023-09-03T19:30:52.006Z,2.00
2023-09-03T19:33:20.828Z,2.20
2023-09-03T19:35:57.527Z,1.90
2023-09-03T19:38:32.724Z,2.20
2023-09-03T19:41:01.695Z,2.28
2023-09-03T19:43:28.662Z,2.00
2023-09-03T19:45:57.476Z,2.00
2023-09-03T19:48:26.563Z,2.05
2023-09-03T19:50:56.726Z,1.85
2023-09-03T19:53:23.730Z,2.13
2023-09-03T19:55:50.767Z,2.10
2023-09-03T19:58:18.059Z,2.15
2023-09-03T20:00:45.538Z,2.00
2023-09-03T20:03:13.451Z,2.08
2023-09-03T20:05:42.032Z,2.45
2023-09-03T20:08:09.564Z,2.72
2023-09-03T20:10:40.186Z,2.20
2023-09-03T20:13:09.007Z,2.15
2023-09-03T20:15:38.871Z,1.85
2023-09-03T20:18:06.365Z,2.30
2023-09-03T20:20:36.550Z,2.10
2023-09-03T20:25:30.422Z,2.50
2023-09-03T20:27:57.125Z,2.33
2023-09-03T20:30:23.827Z,2.25
2023-09-03T20:32:50.840Z,2.05
2023-09-03T20:35:20.109Z,2.50
2023-09-03T20:37:47.077Z,2.00
2023-09-03T20:40:13.893Z,2.20
2023-09-03T20:42:40.786Z,2.25
2023-09-03T20:45:08.044Z,2.30
2023-09-03T20:47:34.985Z,2.40
2023-09-03T20:50:02.277Z,2.55
2023-09-03T20:52:29.403Z,2.50
2023-09-03T20:54:56.192Z,2.60
2023-09-03T20:57:22.986Z,2.45
2023-09-03T20:59:49.667Z,2.35
2023-09-03T21:02:16.421Z,2.38
2023-09-03T21:04:43.458Z,2.65
2023-09-03T21:07:10.182Z,2.70
2023-09-03T21:09:37.824Z,2.58
